sensor_id;sensor_type;location;lat;lon;timestamp;pressure;altitude;pressure_sealevel;temperature;humidity
38852;BME280;24605;50.092;9.182;2023-07-02T00:00:46;97192.63;;;16.06;100.00
38852;BME280;24605;50.092;9.182;2023-07-02T00:03:12;97190.88;;;16.00;100.00
38852;BME280;24605;50.092;9.182;2023-07-02T00:05:39;97198.13;;;16.04;100.00
38852;BME280;24605;50.092;9.182;2023-07-02T00:08:07;97190.94;;;15.93;100.00
38852;BME280;24605;50.092;9.182;2023-07-02T00:10:34;97198.34;;;15.84;100.00
38852;BME280;24605;50.092;9.182;2023-07-02T00:13:00;97205.25;;;15.85;100.00
38852;BME280;24605;50.092;9.182;2023-07-02T00:15:28;97204.47;;;15.85;100.00
38852;BME280;24605;50.092;9.182;2023-07-02T00:17:54;97199.00;;;15.79;100.00
38852;BME280;24605;50.092;9.182;2023-07-02T00:20:22;97182.41;;;15.72;100.00
38852;BME280;24605;50.092;9.182;2023-07-02T00:22:49;97204.72;;;15.76;100.00
38852;BME280;24605;50.092;9.182;2023-07-02T00:25:15;97204.72;;;15.76;100.00
38852;BME280;24605;50.092;9.182;2023-07-02T00:27:42;97204.94;;;15.75;100.00
38852;BME280;24605;50.092;9.182;2023-07-02T00:30:09;97213.03;;;15.80;100.00
38852;BME280;24605;50.092;9.182;2023-07-02T00:32:37;97204.63;;;15.83;100.00
38852;BME280;24605;50.092;9.182;2023-07-02T00:35:04;97210.16;;;15.81;100.00
38852;BME280;24605;50.092;9.182;2023-07-02T00:37:31;97211.84;;;15.76;100.00
38852;BME280;24605;50.092;9.182;2023-07-02T00:39:57;97211.84;;;15.76;100.00
38852;BME280;24605;50.092;9.182;2023-07-02T00:42:23;97208.75;;;15.60;100.00
38852;BME280;24605;50.092;9.182;2023-07-02T00:44:54;97205.03;;;15.68;100.00
38852;BME280;24605;50.092;9.182;2023-07-02T00:47:22;97210.16;;;15.63;100.00
38852;BME280;24605;50.092;9.182;2023-07-02T00:49:50;97211.25;;;15.55;100.00
38852;BME280;24605;50.092;9.182;2023-07-02T00:52:17;97205.97;;;15.55;100.00
38852;BME280;24605;50.092;9.182;2023-07-02T00:54:45;97210.88;;;15.51;100.00
38852;BME280;24605;50.092;9.182;2023-07-02T00:57:12;97221.66;;;15.50;100.00
38852;BME280;24605;50.092;9.182;2023-07-02T00:59:38;97221.88;;;15.48;100.00
38852;BME280;24605;50.092;9.182;2023-07-02T01:02:05;97224.97;;;15.45;100.00
38852;BME280;24605;50.092;9.182;2023-07-02T01:04:31;97215.34;;;15.51;100.00
38852;BME280;24605;50.092;9.182;2023-07-02T01:06:59;97227.31;;;15.54;100.00
38852;BME280;24605;50.092;9.182;2023-07-02T01:09:26;97224.84;;;15.59;100.00
38852;BME280;24605;50.092;9.182;2023-07-02T01:11:54;97207.84;;;15.48;100.00
38852;BME280;24605;50.092;9.182;2023-07-02T01:14:24;97210.88;;;15.51;100.00
38852;BME280;24605;50.092;9.182;2023-07-02T01:16:52;97229.16;;;15.53;100.00
38852;BME280;24605;50.092;9.182;2023-07-02T01:19:30;97234.28;;;15.48;100.00
38852;BME280;24605;50.092;9.182;2023-07-02T01:21:59;97230.91;;;15.41;100.00
38852;BME280;24605;50.092;9.182;2023-07-02T01:24:26;97224.06;;;15.33;100.00
38852;BME280;24605;50.092;9.182;2023-07-02T01:26:53;97221.25;;;15.28;100.00
38852;BME280;24605;50.092;9.182;2023-07-02T01:29:21;97223.94;;;15.21;100.00
38852;BME280;24605;50.092;9.182;2023-07-02T01:31:48;97232.53;;;15.16;100.00
38852;BME280;24605;50.092;9.182;2023-07-02T01:34:14;97226.66;;;15.14;100.00
38852;BME280;24605;50.092;9.182;2023-07-02T01:36:42;97216.53;;;15.11;100.00
38852;BME280;24605;50.092;9.182;2023-07-02T01:39:09;97227.03;;;15.18;100.00
38852;BME280;24605;50.092;9.182;2023-07-02T01:41:42;97220.69;;;15.00;100.00
38852;BME280;24605;50.092;9.182;2023-07-02T01:44:09;97231.63;;;15.04;100.00
38852;BME280;24605;50.092;9.182;2023-07-02T01:46:35;97229.63;;;14.99;100.00
38852;BME280;24605;50.092;9.182;2023-07-02T01:49:02;97231.88;;;14.96;100.00
38852;BME280;24605;50.092;9.182;2023-07-02T01:51:28;97226.00;;;14.94;100.00
38852;BME280;24605;50.092;9.182;2023-07-02T01:53:56;97231.50;;;14.92;100.00
38852;BME280;24605;50.092;9.182;2023-07-02T01:56:22;97232.34;;;14.86;100.00
38852;BME280;24605;50.092;9.182;2023-07-02T01:58:49;97228.31;;;14.83;100.00
38852;BME280;24605;50.092;9.182;2023-07-02T02:01:15;97234.06;;;14.73;100.00
38852;BME280;24605;50.092;9.182;2023-07-02T02:03:42;97232.69;;;14.71;100.00
38852;BME280;24605;50.092;9.182;2023-07-02T02:06:09;97233.53;;;14.58;100.00
38852;BME280;24605;50.092;9.182;2023-07-02T02:08:35;97240.25;;;14.54;100.00
38852;BME280;24605;50.092;9.182;2023-07-02T02:11:03;97240.47;;;14.52;100.00
38852;BME280;24605;50.092;9.182;2023-07-02T02:13:30;97247.41;;;14.47;100.00
38852;BME280;24605;50.092;9.182;2023-07-02T02:15:57;97235.47;;;14.37;100.00
38852;BME280;24605;50.092;9.182;2023-07-02T02:18:23;97242.16;;;14.40;100.00
38852;BME280;24605;50.092;9.182;2023-07-02T02:20:50;97242.38;;;14.38;100.00
38852;BME280;24605;50.092;9.182;2023-07-02T02:23:16;97245.63;;;14.34;100.00
38852;BME280;24605;50.092;9.182;2023-07-02T02:25:43;97239.78;;;14.25;100.00
38852;BME280;24605;50.092;9.182;2023-07-02T02:28:11;97233.50;;;14.19;100.00
38852;BME280;24605;50.092;9.182;2023-07-02T02:30:37;97237.59;;;14.22;100.00
38852;BME280;24605;50.092;9.182;2023-07-02T02:33:03;97235.59;;;14.10;100.00
38852;BME280;24605;50.092;9.182;2023-07-02T02:35:30;97235.22;;;14.07;100.00
38852;BME280;24605;50.092;9.182;2023-07-02T02:37:56;97237.44;;;14.03;100.00
38852;BME280;24605;50.092;9.182;2023-07-02T02:40:23;97233.41;;;14.01;100.00
38852;BME280;24605;50.092;9.182;2023-07-02T02:42:49;97231.00;;;13.92;100.00
38852;BME280;24605;50.092;9.182;2023-07-02T02:45:17;97234.44;;;13.93;100.00
38852;BME280;24605;50.092;9.182;2023-07-02T02:47:45;97218.47;;;13.81;100.00
38852;BME280;24605;50.092;9.182;2023-07-02T02:50:13;97232.84;;;13.85;100.00
38852;BME280;24605;50.092;9.182;2023-07-02T02:52:39;97238.50;;;13.89;100.00
38852;BME280;24605;50.092;9.182;2023-07-02T02:55:08;97245.38;;;13.90;100.00
38852;BME280;24605;50.092;9.182;2023-07-02T02:57:35;97247.41;;;13.94;100.00
38852;BME280;24605;50.092;9.182;2023-07-02T03:00:02;97251.44;;;14.04;100.00
38852;BME280;24605;50.092;9.182;2023-07-02T03:02:31;97256.69;;;14.10;100.00
38852;BME280;24605;50.092;9.182;2023-07-02T03:04:58;97242.50;;;14.05;100.00
38852;BME280;24605;50.092;9.182;2023-07-02T03:07:27;97255.22;;;14.21;100.00
38852;BME280;24605;50.092;9.182;2023-07-02T03:09:53;97262.94;;;14.23;100.00
38852;BME280;24605;50.092;9.182;2023-07-02T03:12:20;97259.25;;;14.24;100.00
38852;BME280;24605;50.092;9.182;2023-07-02T03:14:47;97259.25;;;14.24;100.00
38852;BME280;24605;50.092;9.182;2023-07-02T03:17:18;97258.84;;;14.20;100.00
38852;BME280;24605;50.092;9.182;2023-07-02T03:19:45;97269.41;;;14.20;100.00
38852;BME280;24605;50.092;9.182;2023-07-02T03:22:12;97269.00;;;14.23;100.00
38852;BME280;24605;50.092;9.182;2023-07-02T03:24:38;97265.34;;;14.24;100.00
38852;BME280;24605;50.092;9.182;2023-07-02T03:27:06;97244.34;;;13.98;100.00
38852;BME280;24605;50.092;9.182;2023-07-02T03:29:34;97272.28;;;14.12;100.00
38852;BME280;24605;50.092;9.182;2023-07-02T03:32:01;97271.50;;;14.05;100.00
38852;BME280;24605;50.092;9.182;2023-07-02T03:34:27;97270.47;;;14.06;100.00
38852;BME280;24605;50.092;9.182;2023-07-02T03:36:55;97266.22;;;14.05;100.00
38852;BME280;24605;50.092;9.182;2023-07-02T03:39:22;97260.56;;;14.01;100.00
38852;BME280;24605;50.092;9.182;2023-07-02T03:41:49;97268.09;;;13.91;100.00
38852;BME280;24605;50.092;9.182;2023-07-02T03:44:15;97265.44;;;13.98;100.00
38852;BME280;24605;50.092;9.182;2023-07-02T03:46:43;97276.59;;;13.93;100.00
38852;BME280;24605;50.092;9.182;2023-07-02T03:49:09;97276.63;;;13.86;100.00
38852;BME280;24605;50.092;9.182;2023-07-02T03:51:36;97277.44;;;13.87;100.00
38852;BME280;24605;50.092;9.182;2023-07-02T03:54:06;97285.75;;;13.90;100.00
38852;BME280;24605;50.092;9.182;2023-07-02T03:56:32;97284.94;;;13.83;100.00
38852;BME280;24605;50.092;9.182;2023-07-02T03:58:59;97274.03;;;13.73;100.00
38852;BME280;24605;50.092;9.182;2023-07-02T04:01:25;97300.31;;;13.86;100.00
38852;BME280;24605;50.092;9.182;2023-07-02T04:03:53;97297.09;;;13.84;100.00
38852;BME280;24605;50.092;9.182;2023-07-02T04:06:19;97303.19;;;13.85;100.00
38852;BME280;24605;50.092;9.182;2023-07-02T04:08:46;97293.03;;;13.88;100.00
38852;BME280;24605;50.092;9.182;2023-07-02T04:11:13;97298.72;;;13.85;100.00
38852;BME280;24605;50.092;9.182;2023-07-02T04:13:40;97309.84;;;13.81;100.00
38852;BME280;24605;50.092;9.182;2023-07-02T04:16:07;97313.09;;;13.83;100.00
38852;BME280;24605;50.092;9.182;2023-07-02T04:18:33;97314.53;;;13.78;100.00
38852;BME280;24605;50.092;9.182;2023-07-02T04:21:01;97312.09;;;13.84;100.00
38852;BME280;24605;50.092;9.182;2023-07-02T04:23:28;97319.38;;;13.95;100.00
38852;BME280;24605;50.092;9.182;2023-07-02T04:25:54;97308.66;;;13.76;100.00
38852;BME280;24605;50.092;9.182;2023-07-02T04:28:22;97327.06;;;13.90;100.00
38852;BME280;24605;50.092;9.182;2023-07-02T04:30:48;97316.53;;;13.90;100.00
38852;BME280;24605;50.092;9.182;2023-07-02T04:33:17;97329.53;;;13.91;100.00
38852;BME280;24605;50.092;9.182;2023-07-02T04:35:43;97329.88;;;14.02;100.00
38852;BME280;24605;50.092;9.182;2023-07-02T04:38:10;97317.34;;;13.90;100.00
38852;BME280;24605;50.092;9.182;2023-07-02T04:40:37;97319.16;;;13.90;100.00
38852;BME280;24605;50.092;9.182;2023-07-02T04:43:04;97299.47;;;13.99;100.00
38852;BME280;24605;50.092;9.182;2023-07-02T04:45:32;97305.97;;;14.03;100.00
38852;BME280;24605;50.092;9.182;2023-07-02T04:48:01;97312.03;;;14.10;100.00
38852;BME280;24605;50.092;9.182;2023-07-02T04:50:28;97323.34;;;14.24;100.00
38852;BME280;24605;50.092;9.182;2023-07-02T04:52:55;97324.97;;;14.25;100.00
38852;BME280;24605;50.092;9.182;2023-07-02T04:55:21;97328.63;;;14.24;100.00
38852;BME280;24605;50.092;9.182;2023-07-02T04:57:48;97336.31;;;14.26;100.00
38852;BME280;24605;50.092;9.182;2023-07-02T05:00:15;97335.91;;;14.29;100.00
38852;BME280;24605;50.092;9.182;2023-07-02T05:02:43;97337.50;;;14.37;100.00
38852;BME280;24605;50.092;9.182;2023-07-02T05:05:09;97337.31;;;14.38;100.00
38852;BME280;24605;50.092;9.182;2023-07-02T05:07:36;97340.72;;;14.46;100.00
38852;BME280;24605;50.092;9.182;2023-07-02T05:10:02;97341.56;;;14.39;100.00
38852;BME280;24605;50.092;9.182;2023-07-02T05:12:29;97331.81;;;14.40;100.00
38852;BME280;24605;50.092;9.182;2023-07-02T05:14:55;97342.34;;;14.40;100.00
38852;BME280;24605;50.092;9.182;2023-07-02T05:17:22;97350.88;;;14.35;100.00
38852;BME280;24605;50.092;9.182;2023-07-02T05:19:50;97351.03;;;14.47;100.00
38852;BME280;24605;50.092;9.182;2023-07-02T05:22:17;97353.91;;;14.39;100.00
38852;BME280;24605;50.092;9.182;2023-07-02T05:24:43;97354.13;;;14.37;100.00
38852;BME280;24605;50.092;9.182;2023-07-02T05:27:11;97356.38;;;14.40;100.00
38852;BME280;24605;50.092;9.182;2023-07-02T05:29:38;97355.31;;;14.41;100.00
38852;BME280;24605;50.092;9.182;2023-07-02T05:32:05;97363.66;;;14.38;100.00
38852;BME280;24605;50.092;9.182;2023-07-02T05:34:31;97366.31;;;14.38;100.00
38852;BME280;24605;50.092;9.182;2023-07-02T05:36:59;97373.59;;;14.50;100.00
38852;BME280;24605;50.092;9.182;2023-07-02T05:39:26;97378.59;;;14.71;100.00
38852;BME280;24605;50.092;9.182;2023-07-02T05:41:52;97377.41;;;14.67;100.00
38852;BME280;24605;50.092;9.182;2023-07-02T05:44:19;97374.22;;;14.91;100.00
38852;BME280;24605;50.092;9.182;2023-07-02T05:46:45;97373.69;;;14.82;100.00
38852;BME280;24605;50.092;9.182;2023-07-02T05:49:12;97374.16;;;15.04;100.00
38852;BME280;24605;50.092;9.182;2023-07-02T05:51:38;97366.25;;;15.36;99.74
38852;BME280;24605;50.092;9.182;2023-07-02T05:54:06;97365.91;;;15.58;98.16
38852;BME280;24605;50.092;9.182;2023-07-02T05:56:32;97370.53;;;15.88;96.47
38852;BME280;24605;50.092;9.182;2023-07-02T05:58:59;97378.28;;;15.82;96.02
38852;BME280;24605;50.092;9.182;2023-07-02T06:01:25;97375.72;;;15.50;97.97
38852;BME280;24605;50.092;9.182;2023-07-02T06:03:52;97379.75;;;15.53;98.07
38852;BME280;24605;50.092;9.182;2023-07-02T06:06:18;97377.38;;;15.45;98.39
38852;BME280;24605;50.092;9.182;2023-07-02T06:08:45;97389.63;;;15.64;97.31
38852;BME280;24605;50.092;9.182;2023-07-02T06:11:12;97381.69;;;15.64;96.24
38852;BME280;24605;50.092;9.182;2023-07-02T06:13:39;97386.03;;;15.84;96.12
38852;BME280;24605;50.092;9.182;2023-07-02T06:16:05;97389.94;;;15.75;96.59
38852;BME280;24605;50.092;9.182;2023-07-02T06:18:32;97390.16;;;15.73;96.27
38852;BME280;24605;50.092;9.182;2023-07-02T06:20:58;97401.88;;;15.59;96.78
38852;BME280;24605;50.092;9.182;2023-07-02T06:23:25;97407.72;;;15.61;97.15
38852;BME280;24605;50.092;9.182;2023-07-02T06:25:51;97411.28;;;15.48;97.88
38852;BME280;24605;50.092;9.182;2023-07-02T06:28:25;97413.66;;;15.56;97.98
38852;BME280;24605;50.092;9.182;2023-07-02T06:30:51;97403.53;;;15.53;98.35
38852;BME280;24605;50.092;9.182;2023-07-02T06:33:18;97407.91;;;15.66;98.26
38852;BME280;24605;50.092;9.182;2023-07-02T06:35:44;97368.53;;;15.58;96.95
38852;BME280;24605;50.092;9.182;2023-07-02T06:38:11;97404.91;;;15.88;96.72
38852;BME280;24605;50.092;9.182;2023-07-02T06:40:37;97405.53;;;16.08;96.61
38852;BME280;24605;50.092;9.182;2023-07-02T06:43:03;97416.00;;;16.40;94.86
38852;BME280;24605;50.092;9.182;2023-07-02T06:45:31;97420.63;;;16.26;94.99
38852;BME280;24605;50.092;9.182;2023-07-02T06:47:58;97409.66;;;16.04;95.49
38852;BME280;24605;50.092;9.182;2023-07-02T06:50:24;97416.91;;;16.09;96.10
38852;BME280;24605;50.092;9.182;2023-07-02T06:52:50;97418.72;;;15.90;96.34
38852;BME280;24605;50.092;9.182;2023-07-02T06:55:17;97416.53;;;16.05;95.10
38852;BME280;24605;50.092;9.182;2023-07-02T06:57:44;97422.66;;;16.06;95.26
38852;BME280;24605;50.092;9.182;2023-07-02T07:00:12;97420.53;;;16.14;95.16
38852;BME280;24605;50.092;9.182;2023-07-02T07:02:40;97427.34;;;16.29;94.35
38852;BME280;24605;50.092;9.182;2023-07-02T07:05:07;97420.94;;;16.55;93.74
38852;BME280;24605;50.092;9.182;2023-07-02T07:07:34;97424.31;;;16.81;92.92
38852;BME280;24605;50.092;9.182;2023-07-02T07:10:01;97413.72;;;16.81;91.15
38852;BME280;24605;50.092;9.182;2023-07-02T07:12:29;97420.94;;;16.92;91.26
38852;BME280;24605;50.092;9.182;2023-07-02T07:14:55;97424.63;;;16.54;92.71
38852;BME280;24605;50.092;9.182;2023-07-02T07:17:21;97426.22;;;16.74;92.68
38852;BME280;24605;50.092;9.182;2023-07-02T07:19:49;97416.91;;;16.71;92.32
38852;BME280;24605;50.092;9.182;2023-07-02T07:22:16;97423.81;;;16.72;93.39
38852;BME280;24605;50.092;9.182;2023-07-02T07:24:42;97421.34;;;16.89;91.83
38852;BME280;24605;50.092;9.182;2023-07-02T07:27:09;97424.25;;;16.69;92.50
38852;BME280;24605;50.092;9.182;2023-07-02T07:29:35;97429.03;;;16.60;92.24
38852;BME280;24605;50.092;9.182;2023-07-02T07:32:02;97429.84;;;16.61;93.01
38852;BME280;24605;50.092;9.182;2023-07-02T07:34:28;97436.09;;;16.85;91.70
38852;BME280;24605;50.092;9.182;2023-07-02T07:36:56;97429.28;;;17.27;90.95
38852;BME280;24605;50.092;9.182;2023-07-02T07:39:23;97437.50;;;17.37;89.14
38852;BME280;24605;50.092;9.182;2023-07-02T07:41:49;97445.16;;;17.57;88.06
38852;BME280;24605;50.092;9.182;2023-07-02T07:44:15;97442.44;;;17.76;87.11
38852;BME280;24605;50.092;9.182;2023-07-02T07:46:42;97446.69;;;17.65;86.60
38852;BME280;24605;50.092;9.182;2023-07-02T07:49:08;97453.78;;;17.52;87.31
38852;BME280;24605;50.092;9.182;2023-07-02T07:51:35;97449.63;;;17.45;88.44
38852;BME280;24605;50.092;9.182;2023-07-02T07:54:03;97454.84;;;17.63;88.17
38852;BME280;24605;50.092;9.182;2023-07-02T07:56:30;97450.94;;;17.66;86.92
38852;BME280;24605;50.092;9.182;2023-07-02T07:58:57;97457.13;;;17.60;87.11
38852;BME280;24605;50.092;9.182;2023-07-02T08:01:25;97456.59;;;17.27;88.45
38852;BME280;24605;50.092;9.182;2023-07-02T08:03:52;97437.78;;;16.98;89.35
38852;BME280;24605;50.092;9.182;2023-07-02T08:06:18;97460.28;;;17.26;89.44
38852;BME280;24605;50.092;9.182;2023-07-02T08:08:45;97461.09;;;17.38;88.79
38852;BME280;24605;50.092;9.182;2023-07-02T08:11:13;97465.69;;;17.74;87.71
38852;BME280;24605;50.092;9.182;2023-07-02T08:13:39;97469.97;;;17.75;87.17
38852;BME280;24605;50.092;9.182;2023-07-02T08:16:06;97464.72;;;17.56;88.32
38852;BME280;24605;50.092;9.182;2023-07-02T08:18:34;97474.00;;;17.77;87.40
38852;BME280;24605;50.092;9.182;2023-07-02T08:21:00;97482.56;;;17.79;87.18
38852;BME280;24605;50.092;9.182;2023-07-02T08:23:27;97477.00;;;17.69;87.53
38852;BME280;24605;50.092;9.182;2023-07-02T08:25:54;97436.94;;;17.47;86.95
38852;BME280;24605;50.092;9.182;2023-07-02T08:28:21;97480.47;;;17.69;87.70
38852;BME280;24605;50.092;9.182;2023-07-02T08:30:48;97475.75;;;17.72;87.24
38852;BME280;24605;50.092;9.182;2023-07-02T08:33:14;97457.47;;;17.51;87.21
38852;BME280;24605;50.092;9.182;2023-07-02T08:35:41;97483.25;;;17.86;86.68
38852;BME280;24605;50.092;9.182;2023-07-02T08:38:07;97480.03;;;17.84;86.71
38852;BME280;24605;50.092;9.182;2023-07-02T08:40:34;97483.38;;;17.80;87.08
38852;BME280;24605;50.092;9.182;2023-07-02T08:43:00;97487.13;;;18.03;85.89
38852;BME280;24605;50.092;9.182;2023-07-02T08:45:29;97478.84;;;17.68;86.39
38852;BME280;24605;50.092;9.182;2023-07-02T08:47:56;97482.78;;;17.78;87.20
38852;BME280;24605;50.092;9.182;2023-07-02T08:50:23;97482.84;;;18.01;84.69
38852;BME280;24605;50.092;9.182;2023-07-02T08:52:49;97485.75;;;18.12;84.62
38852;BME280;24605;50.092;9.182;2023-07-02T08:55:16;97487.88;;;17.91;85.36
38852;BME280;24605;50.092;9.182;2023-07-02T08:57:48;97490.09;;;17.94;85.46
38852;BME280;24605;50.092;9.182;2023-07-02T09:00:16;97483.81;;;18.19;84.25
38852;BME280;24605;50.092;9.182;2023-07-02T09:02:44;97482.91;;;18.49;82.83
38852;BME280;24605;50.092;9.182;2023-07-02T09:05:12;97495.34;;;18.48;83.66
38852;BME280;24605;50.092;9.182;2023-07-02T09:07:45;97482.06;;;18.37;82.80
38852;BME280;24605;50.092;9.182;2023-07-02T09:10:12;97493.38;;;18.56;82.27
38852;BME280;24605;50.092;9.182;2023-07-02T09:12:38;97491.75;;;18.78;81.42
38852;BME280;24605;50.092;9.182;2023-07-02T09:15:06;97490.69;;;19.03;77.92
38852;BME280;24605;50.092;9.182;2023-07-02T09:17:33;97497.97;;;19.08;76.64
38852;BME280;24605;50.092;9.182;2023-07-02T09:20:04;97492.69;;;18.60;73.50
38852;BME280;24605;50.092;9.182;2023-07-02T09:22:32;97488.28;;;18.78;74.75
38852;BME280;24605;50.092;9.182;2023-07-02T09:25:00;97494.88;;;18.99;73.44
38852;BME280;24605;50.092;9.182;2023-07-02T09:27:34;97501.53;;;19.14;70.02
38852;BME280;24605;50.092;9.182;2023-07-02T09:30:06;97494.84;;;18.87;69.79
38852;BME280;24605;50.092;9.182;2023-07-02T09:32:33;97492.84;;;19.18;68.35
38852;BME280;24605;50.092;9.182;2023-07-02T09:34:59;97493.59;;;19.42;69.31
38852;BME280;24605;50.092;9.182;2023-07-02T09:37:27;97499.38;;;19.39;66.84
38852;BME280;24605;50.092;9.182;2023-07-02T09:39:55;97494.38;;;19.43;66.35
38852;BME280;24605;50.092;9.182;2023-07-02T09:42:22;97501.19;;;19.10;67.07
38852;BME280;24605;50.092;9.182;2023-07-02T09:44:52;97499.13;;;19.12;65.64
38852;BME280;24605;50.092;9.182;2023-07-02T09:47:21;97500.72;;;19.13;67.00
38852;BME280;24605;50.092;9.182;2023-07-02T09:49:49;97495.13;;;19.26;66.37
38852;BME280;24605;50.092;9.182;2023-07-02T09:52:18;97500.09;;;19.64;66.14
38852;BME280;24605;50.092;9.182;2023-07-02T09:54:47;97495.66;;;20.15;66.04
38852;BME280;24605;50.092;9.182;2023-07-02T09:57:14;97494.84;;;19.98;62.73
38852;BME280;24605;50.092;9.182;2023-07-02T09:59:41;97466.94;;;19.54;64.22
38852;BME280;24605;50.092;9.182;2023-07-02T10:02:09;97493.53;;;19.25;65.38
38852;BME280;24605;50.092;9.182;2023-07-02T10:04:40;97488.72;;;19.39;65.62
38852;BME280;24605;50.092;9.182;2023-07-02T10:07:07;97493.72;;;19.82;63.06
38852;BME280;24605;50.092;9.182;2023-07-02T10:09:35;97491.56;;;19.79;61.15
38852;BME280;24605;50.092;9.182;2023-07-02T10:12:14;97483.72;;;20.01;59.56
38852;BME280;24605;50.092;9.182;2023-07-02T10:14:41;97481.72;;;20.64;58.39
38852;BME280;24605;50.092;9.182;2023-07-02T10:17:08;97484.91;;;20.84;58.37
38852;BME280;24605;50.092;9.182;2023-07-02T10:19:34;97472.81;;;20.98;55.86
38852;BME280;24605;50.092;9.182;2023-07-02T10:22:02;97479.56;;;21.28;56.66
38852;BME280;24605;50.092;9.182;2023-07-02T10:24:29;97488.06;;;20.80;55.44
38852;BME280;24605;50.092;9.182;2023-07-02T10:26:57;97485.44;;;20.46;57.74
38852;BME280;24605;50.092;9.182;2023-07-02T10:29:26;97484.84;;;20.61;57.26
38852;BME280;24605;50.092;9.182;2023-07-02T10:31:54;97476.44;;;20.30;58.03
38852;BME280;24605;50.092;9.182;2023-07-02T10:34:30;97493.78;;;20.33;59.38
38852;BME280;24605;50.092;9.182;2023-07-02T10:36:57;97494.97;;;20.42;57.93
38852;BME280;24605;50.092;9.182;2023-07-02T10:39:24;97484.50;;;20.35;58.32
38852;BME280;24605;50.092;9.182;2023-07-02T10:41:51;97491.75;;;20.23;58.96
38852;BME280;24605;50.092;9.182;2023-07-02T10:44:18;97496.28;;;20.06;59.24
38852;BME280;24605;50.092;9.182;2023-07-02T10:46:46;97494.78;;;19.81;60.34
38852;BME280;24605;50.092;9.182;2023-07-02T10:49:13;97486.00;;;19.80;61.30
38852;BME280;24605;50.092;9.182;2023-07-02T10:51:40;97479.13;;;19.84;60.97
38852;BME280;24605;50.092;9.182;2023-07-02T10:54:06;97479.09;;;20.13;59.80
38852;BME280;24605;50.092;9.182;2023-07-02T10:56:34;97476.50;;;20.53;58.93
38852;BME280;24605;50.092;9.182;2023-07-02T10:59:01;97469.13;;;20.60;58.83
38852;BME280;24605;50.092;9.182;2023-07-02T11:01:28;97472.19;;;21.35;57.37
38852;BME280;24605;50.092;9.182;2023-07-02T11:03:57;97473.75;;;21.31;56.03
38852;BME280;24605;50.092;9.182;2023-07-02T11:06:24;97476.75;;;21.40;56.49
38852;BME280;24605;50.092;9.182;2023-07-02T11:08:51;97479.84;;;21.04;56.15
38852;BME280;24605;50.092;9.182;2023-07-02T11:11:20;97472.28;;;20.57;58.54
38852;BME280;24605;50.092;9.182;2023-07-02T11:13:48;97471.66;;;20.32;59.01
38852;BME280;24605;50.092;9.182;2023-07-02T11:16:23;97475.31;;;20.43;58.96
38852;BME280;24605;50.092;9.182;2023-07-02T11:18:54;97483.03;;;20.28;60.46
38852;BME280;24605;50.092;9.182;2023-07-02T11:21:33;97478.06;;;20.31;60.04
38852;BME280;24605;50.092;9.182;2023-07-02T11:24:03;97476.66;;;19.78;62.49
38852;BME280;24605;50.092;9.182;2023-07-02T11:26:36;97475.16;;;20.33;62.36
38852;BME280;24605;50.092;9.182;2023-07-02T11:29:03;97477.97;;;20.43;61.56
38852;BME280;24605;50.092;9.182;2023-07-02T11:31:29;97473.69;;;20.25;60.59
38852;BME280;24605;50.092;9.182;2023-07-02T11:33:56;97493.38;;;20.07;60.05
38852;BME280;24605;50.092;9.182;2023-07-02T11:36:23;97482.34;;;20.15;58.39
38852;BME280;24605;50.092;9.182;2023-07-02T11:38:54;97476.91;;;20.44;56.09
38852;BME280;24605;50.092;9.182;2023-07-02T11:41:21;97480.34;;;20.62;55.77
38852;BME280;24605;50.092;9.182;2023-07-02T11:43:47;97468.63;;;20.80;54.37
38852;BME280;24605;50.092;9.182;2023-07-02T11:46:14;97476.22;;;20.71;55.49
38852;BME280;24605;50.092;9.182;2023-07-02T11:48:41;97471.72;;;21.16;53.01
38852;BME280;24605;50.092;9.182;2023-07-02T11:51:07;97465.78;;;21.09;52.50
38852;BME280;24605;50.092;9.182;2023-07-02T11:53:34;97468.97;;;21.33;51.92
38852;BME280;24605;50.092;9.182;2023-07-02T11:56:02;97469.59;;;21.68;51.24
38852;BME280;24605;50.092;9.182;2023-07-02T11:58:28;97471.41;;;21.89;50.67
38852;BME280;24605;50.092;9.182;2023-07-02T12:00:55;97476.78;;;22.32;48.65
38852;BME280;24605;50.092;9.182;2023-07-02T12:03:21;97461.72;;;21.83;49.11
38852;BME280;24605;50.092;9.182;2023-07-02T12:05:48;97461.97;;;21.82;50.93
38852;BME280;24605;50.092;9.182;2023-07-02T12:08:14;97461.75;;;22.21;50.33
38852;BME280;24605;50.092;9.182;2023-07-02T12:10:41;97462.97;;;21.48;49.72
38852;BME280;24605;50.092;9.182;2023-07-02T12:13:09;97466.25;;;21.06;51.13
38852;BME280;24605;50.092;9.182;2023-07-02T12:15:35;97472.94;;;21.08;50.13
38852;BME280;24605;50.092;9.182;2023-07-02T12:18:02;97464.16;;;21.08;49.30
38852;BME280;24605;50.092;9.182;2023-07-02T12:20:28;97478.25;;;21.31;47.83
38852;BME280;24605;50.092;9.182;2023-07-02T12:22:55;97477.78;;;21.61;46.53
38852;BME280;24605;50.092;9.182;2023-07-02T12:25:22;97470.66;;;21.67;47.45
38852;BME280;24605;50.092;9.182;2023-07-02T12:27:48;97475.28;;;21.77;46.90
38852;BME280;24605;50.092;9.182;2023-07-02T12:30:16;97477.16;;;22.09;46.84
38852;BME280;24605;50.092;9.182;2023-07-02T12:32:44;97475.78;;;21.73;49.03
38852;BME280;24605;50.092;9.182;2023-07-02T12:35:11;97463.69;;;21.66;48.99
38852;BME280;24605;50.092;9.182;2023-07-02T12:37:43;97479.47;;;22.00;48.24
38852;BME280;24605;50.092;9.182;2023-07-02T12:40:10;97473.31;;;21.94;48.82
38852;BME280;24605;50.092;9.182;2023-07-02T12:42:37;97472.53;;;21.99;47.58
38852;BME280;24605;50.092;9.182;2023-07-02T12:45:05;97469.69;;;22.48;46.17
38852;BME280;24605;50.092;9.182;2023-07-02T12:47:33;97476.28;;;21.98;46.69
38852;BME280;24605;50.092;9.182;2023-07-02T12:50:00;97469.53;;;21.90;45.24
38852;BME280;24605;50.092;9.182;2023-07-02T12:52:28;97478.94;;;21.43;46.48
38852;BME280;24605;50.092;9.182;2023-07-02T12:54:54;97475.31;;;21.54;47.40